createdAt,value
2018-04-10T00:02:36.601Z,6.77
2018-04-10T00:17:34.667Z,9.27
2018-04-10T00:32:34.608Z,9.63
2018-04-10T00:47:35.152Z,7.60
2018-04-10T01:02:34.586Z,8.63
2018-04-10T01:17:35.076Z,11.53
2018-04-10T01:32:33.848Z,9.27
2018-04-10T01:47:34.193Z,6.00
2018-04-10T02:02:34.788Z,5.50
2018-04-10T02:17:35.307Z,7.73
2018-04-10T02:32:34.667Z,11.60
2018-04-10T02:47:35.174Z,9.53
2018-04-10T03:02:35.072Z,8.90
2018-04-10T03:17:34.888Z,9.30
2018-04-10T03:32:36.472Z,10.20
2018-04-10T03:47:35.100Z,14.83
2018-04-10T04:02:37.731Z,14.03
2018-04-10T04:17:35.345Z,18.23
2018-04-10T04:32:35.772Z,27.07
2018-04-10T04:47:38.495Z,18.20
2018-04-10T05:02:36.940Z,17.00
2018-04-10T05:17:37.809Z,16.43
2018-04-10T05:47:38.305Z,18.63
2018-04-10T06:02:36.900Z,22.87
2018-04-10T06:17:34.876Z,18.83
2018-04-10T06:32:36.874Z,15.80
2018-04-10T06:47:34.832Z,13.60
2018-04-10T07:02:35.113Z,16.30
2018-04-10T07:17:35.046Z,16.40
2018-04-10T07:32:35.936Z,23.73
2018-04-10T07:47:34.877Z,15.97
2018-04-10T08:02:35.904Z,18.80
2018-04-10T08:17:36.165Z,15.60
2018-04-10T08:32:34.588Z,11.03
2018-04-10T08:47:34.474Z,13.93
2018-04-10T09:02:37.600Z,9.03
2018-04-10T09:17:37.379Z,10.27
2018-04-10T09:32:34.838Z,7.60
2018-04-10T09:47:38.222Z,8.50
2018-04-10T10:02:36.940Z,12.77
2018-04-10T10:32:39.917Z,12.20
2018-04-10T10:47:35.693Z,8.80
2018-04-10T11:02:37.430Z,10.43
2018-04-10T11:32:38.588Z,6.87
2018-04-10T11:47:35.298Z,6.67
2018-04-10T12:02:38.762Z,8.10
2018-04-10T12:17:35.819Z,8.80
2018-04-10T12:32:37.800Z,8.40
2018-04-10T12:47:38.804Z,6.97
2018-04-10T13:02:39.869Z,5.80
2018-04-10T13:17:39.266Z,11.43
2018-04-10T13:32:36.559Z,5.13
2018-04-10T13:47:34.964Z,7.33
2018-04-10T14:02:36.156Z,6.23
2018-04-10T15:02:46.646Z,7.20
2018-04-10T15:17:35.450Z,6.10
2018-04-10T15:32:36.160Z,5.30
2018-04-10T15:47:34.551Z,5.67
2018-04-10T16:02:35.308Z,6.53
2018-04-10T16:17:35.095Z,8.10
2018-04-10T16:32:35.623Z,10.80
2018-04-10T16:47:38.059Z,11.60
2018-04-10T17:02:36.629Z,7.07
2018-04-10T17:17:33.880Z,5.90
2018-04-10T17:32:36.724Z,5.77
2018-04-10T17:47:34.618Z,11.07
2018-04-10T18:02:35.092Z,14.63
2018-04-10T18:17:36.442Z,15.93
2018-04-10T18:47:44.447Z,9.20
2018-04-10T19:02:37.611Z,14.70
2018-04-10T19:17:19.261Z,10.33
2018-04-10T19:32:34.156Z,12.87
2018-04-10T19:47:34.768Z,16.90
2018-04-10T20:02:35.465Z,20.30
2018-04-10T20:17:35.413Z,17.30
2018-04-10T20:32:36.412Z,17.60
2018-04-10T20:47:40.679Z,16.97
2018-04-10T21:02:35.131Z,15.90
2018-04-10T21:17:35.617Z,15.40
2018-04-10T21:32:35.093Z,11.67
2018-04-10T21:47:33.732Z,12.70
2018-04-10T22:02:35.888Z,15.93
2018-04-10T22:17:34.848Z,15.90
2018-04-10T22:32:36.296Z,12.40
2018-04-10T22:47:37.690Z,9.80
2018-04-10T23:02:34.877Z,11.30
2018-04-10T23:17:33.973Z,11.13
2018-04-10T23:32:36.790Z,10.97
2018-04-10T23:47:35.415Z,15.47
